createdAt,value
2018-08-11T00:01:42.411Z,5.28
2018-08-11T00:04:09.779Z,6.47
2018-08-11T00:06:37.199Z,4.97
2018-08-11T00:09:07.206Z,3.57
2018-08-11T00:11:34.583Z,3.70
2018-08-11T00:14:01.962Z,4.20
2018-08-11T00:16:29.419Z,4.73
2018-08-11T00:18:56.864Z,5.30
2018-08-11T00:21:24.230Z,5.03
2018-08-11T00:23:51.624Z,4.00
2018-08-11T00:26:19.005Z,2.97
2018-08-11T00:28:46.392Z,4.77
2018-08-11T00:31:13.759Z,6.10
2018-08-11T00:33:41.147Z,5.23
2018-08-11T00:36:08.498Z,4.27
2018-08-11T00:38:35.882Z,5.00
2018-08-11T00:41:03.399Z,4.35
2018-08-11T00:43:30.799Z,5.00
2018-08-11T00:45:58.174Z,4.80
2018-08-11T00:48:25.600Z,5.33
2018-08-11T00:50:53.052Z,6.83
2018-08-11T00:53:20.501Z,9.03
2018-08-11T00:55:47.888Z,5.27
2018-08-11T00:58:15.309Z,6.07
2018-08-11T01:00:42.682Z,6.00
2018-08-11T01:03:10.144Z,6.50
2018-08-11T01:05:37.548Z,7.07
2018-08-11T01:08:04.975Z,9.23
2018-08-11T01:10:32.370Z,8.00
2018-08-11T01:12:59.725Z,8.97
2018-08-11T01:15:27.141Z,9.70
2018-08-11T01:17:54.534Z,8.10
2018-08-11T01:20:21.908Z,9.97
2018-08-11T01:22:49.811Z,10.83
2018-08-11T01:25:17.192Z,8.50
2018-08-11T01:27:44.574Z,9.53
2018-08-11T01:30:14.468Z,8.23
2018-08-11T01:32:41.888Z,11.40
2018-08-11T01:35:09.988Z,9.70
2018-08-11T01:37:38.113Z,10.57
2018-08-11T01:40:05.943Z,9.68
2018-08-11T01:42:33.344Z,9.50
2018-08-11T01:45:00.727Z,10.97
2018-08-11T01:47:28.099Z,8.97
2018-08-11T01:49:55.496Z,10.63
2018-08-11T01:52:22.870Z,11.03
2018-08-11T01:54:50.254Z,10.40
2018-08-11T01:57:17.706Z,11.33
2018-08-11T01:59:45.069Z,9.07
2018-08-11T02:02:12.466Z,10.37
2018-08-11T02:04:39.899Z,9.97
2018-08-11T02:07:07.282Z,10.10
2018-08-11T02:09:34.666Z,11.37
2018-08-11T02:12:02.036Z,9.60
2018-08-11T02:14:29.450Z,11.40
2018-08-11T02:16:56.807Z,14.00
2018-08-11T02:19:24.180Z,11.03
2018-08-11T02:21:51.515Z,11.43
2018-08-11T02:24:18.908Z,12.07
2018-08-11T02:26:46.272Z,10.20
2018-08-11T02:29:13.658Z,10.40
2018-08-11T02:31:41.037Z,10.63
2018-08-11T02:34:08.455Z,9.13
2018-08-11T02:36:35.828Z,9.90
2018-08-11T02:39:05.820Z,11.73
2018-08-11T02:41:33.165Z,11.70
2018-08-11T02:44:00.536Z,10.97
2018-08-11T02:46:27.935Z,13.13
2018-08-11T02:48:55.336Z,9.87
2018-08-11T02:51:22.699Z,10.30
2018-08-11T02:53:50.055Z,10.37
2018-08-11T02:56:17.459Z,10.90
2018-08-11T02:58:44.850Z,11.00
2018-08-11T03:01:12.187Z,10.27
2018-08-11T03:03:39.546Z,14.13
2018-08-11T03:06:06.920Z,10.37
2018-08-11T03:08:34.325Z,11.17
2018-08-11T03:11:01.754Z,10.13
2018-08-11T03:13:29.140Z,11.13
2018-08-11T03:15:56.509Z,12.23
2018-08-11T03:18:23.903Z,9.73
2018-08-11T03:20:51.304Z,10.67
2018-08-11T03:23:18.682Z,12.07
2018-08-11T03:25:46.065Z,10.73
2018-08-11T03:28:13.411Z,8.37
2018-08-11T03:30:40.780Z,10.83
2018-08-11T03:33:08.230Z,10.63
2018-08-11T03:35:35.599Z,8.47
2018-08-11T03:38:02.984Z,9.97
2018-08-11T03:40:30.327Z,11.30
2018-08-11T03:42:57.695Z,11.43
2018-08-11T03:45:25.048Z,12.33
2018-08-11T03:47:52.398Z,12.70
2018-08-11T03:50:19.752Z,14.17
2018-08-11T03:52:47.105Z,10.50
2018-08-11T03:55:14.503Z,13.50
2018-08-11T03:57:41.900Z,11.27
2018-08-11T04:00:10.381Z,10.73
2018-08-11T04:02:37.758Z,10.03
2018-08-11T04:05:05.115Z,11.03
2018-08-11T04:07:32.605Z,14.37
2018-08-11T04:10:00.419Z,10.47
2018-08-11T04:12:27.911Z,11.13
2018-08-11T04:14:55.324Z,12.60
2018-08-11T04:17:27.338Z,13.37
2018-08-11T04:19:54.724Z,10.80
2018-08-11T04:22:22.110Z,10.30
2018-08-11T04:24:49.498Z,14.43
2018-08-11T04:27:16.862Z,13.27
2018-08-11T04:29:44.271Z,12.10
2018-08-11T04:32:11.661Z,14.33
2018-08-11T04:34:39.038Z,13.33
2018-08-11T04:37:06.433Z,10.17
2018-08-11T04:39:33.786Z,11.67
2018-08-11T04:42:01.202Z,8.77
2018-08-11T04:44:28.558Z,11.73
2018-08-11T04:46:55.956Z,10.13
2018-08-11T04:49:23.301Z,10.03
2018-08-11T04:51:50.670Z,12.63
2018-08-11T04:54:18.066Z,10.17
2018-08-11T04:56:45.498Z,9.43
2018-08-11T04:59:12.841Z,11.37
2018-08-11T05:01:40.444Z,9.90
2018-08-11T05:04:07.850Z,9.80
2018-08-11T05:06:35.230Z,10.80
2018-08-11T05:09:02.680Z,8.77
2018-08-11T05:11:30.077Z,9.30
2018-08-11T05:13:57.438Z,11.93
2018-08-11T05:16:24.814Z,10.23
2018-08-11T05:18:52.182Z,9.10
2018-08-11T05:21:19.571Z,10.13
2018-08-11T05:23:46.968Z,10.80
2018-08-11T05:26:14.293Z,10.23
2018-08-11T05:28:41.683Z,11.00
2018-08-11T05:31:09.075Z,9.20
2018-08-11T05:33:36.548Z,9.87
2018-08-11T05:36:03.931Z,9.97
2018-08-11T05:38:31.281Z,11.33
2018-08-11T05:40:58.636Z,10.03
2018-08-11T05:43:26.015Z,11.83
2018-08-11T05:45:53.441Z,9.57
2018-08-11T05:48:20.809Z,10.23
2018-08-11T05:50:48.171Z,12.50
2018-08-11T05:53:15.548Z,9.20
2018-08-11T05:55:42.903Z,9.50
2018-08-11T05:58:10.234Z,11.97
2018-08-11T06:00:37.599Z,9.27
2018-08-11T06:03:04.976Z,9.57
2018-08-11T06:05:32.321Z,10.03
2018-08-11T06:07:59.832Z,8.83
2018-08-11T06:10:27.258Z,8.68
2018-08-11T06:12:54.591Z,8.93
2018-08-11T06:15:21.999Z,8.73
2018-08-11T06:17:49.400Z,9.55
2018-08-11T06:20:16.775Z,9.65
2018-08-11T06:22:44.200Z,8.75
2018-08-11T06:25:11.615Z,9.63
2018-08-11T06:27:39.405Z,8.73
2018-08-11T06:30:08.053Z,9.90
2018-08-11T06:32:35.504Z,10.23
2018-08-11T06:35:03.192Z,8.57
2018-08-11T06:37:30.572Z,9.27
2018-08-11T06:39:57.924Z,9.40
2018-08-11T06:42:25.301Z,9.33
2018-08-11T06:44:52.699Z,9.38
2018-08-11T06:47:20.188Z,7.22
2018-08-11T06:49:48.322Z,6.97
2018-08-11T06:52:15.688Z,10.80
2018-08-11T06:54:43.091Z,7.67
2018-08-11T06:57:10.664Z,8.00
2018-08-11T06:59:38.032Z,8.10
2018-08-11T07:02:05.408Z,6.67
2018-08-11T07:04:32.801Z,7.50
2018-08-11T07:07:00.315Z,8.30
2018-08-11T07:09:27.716Z,9.83
2018-08-11T07:11:55.159Z,6.22
2018-08-11T07:14:22.538Z,7.75
2018-08-11T07:16:49.915Z,7.92
2018-08-11T07:19:17.344Z,6.83
2018-08-11T07:21:45.022Z,8.00
2018-08-11T07:24:12.414Z,7.05
2018-08-11T07:26:39.804Z,7.37
2018-08-11T07:29:07.231Z,8.28
2018-08-11T07:31:34.638Z,7.22
2018-08-11T07:34:02.051Z,5.67
2018-08-11T07:36:29.552Z,7.85
2018-08-11T07:38:56.898Z,6.00
2018-08-11T07:41:24.320Z,5.72
2018-08-11T07:43:51.716Z,6.67
2018-08-11T07:46:19.144Z,7.08
2018-08-11T07:48:46.596Z,7.22
2018-08-11T07:51:13.990Z,5.80
2018-08-11T07:53:41.398Z,5.80
2018-08-11T07:56:08.792Z,6.45
2018-08-11T07:58:36.172Z,6.95
2018-08-11T08:01:03.572Z,5.95
2018-08-11T08:03:30.982Z,6.33
2018-08-11T08:05:58.374Z,5.72
2018-08-11T08:08:25.784Z,6.15
2018-08-11T08:10:53.187Z,6.47
2018-08-11T08:13:20.607Z,5.33
2018-08-11T08:15:47.983Z,5.75
2018-08-11T08:18:15.371Z,6.17
2018-08-11T08:20:42.749Z,5.90
2018-08-11T08:23:10.126Z,5.72
2018-08-11T08:25:37.532Z,5.53
2018-08-11T08:28:04.929Z,5.97
2018-08-11T08:30:32.310Z,6.60
2018-08-11T08:32:59.710Z,6.92
2018-08-11T08:35:27.101Z,5.72
2018-08-11T08:37:54.520Z,7.30
2018-08-11T08:40:21.920Z,7.17
2018-08-11T08:42:49.307Z,5.33
2018-08-11T08:45:16.675Z,5.60
2018-08-11T08:47:44.052Z,5.17
2018-08-11T08:50:11.486Z,4.15
2018-08-11T08:52:38.860Z,6.97
2018-08-11T08:55:06.290Z,5.70
2018-08-11T08:57:33.743Z,4.83
2018-08-11T09:00:01.195Z,7.03
2018-08-11T09:02:28.617Z,5.97
2018-08-11T09:04:56.169Z,7.07
2018-08-11T09:07:23.484Z,5.57
2018-08-11T09:09:50.893Z,4.47
2018-08-11T09:12:18.327Z,6.83
2018-08-11T09:14:46.421Z,4.57
2018-08-11T09:17:13.837Z,5.93
2018-08-11T09:19:41.284Z,4.20
2018-08-11T09:22:08.663Z,3.53
2018-08-11T09:24:36.056Z,7.30
2018-08-11T09:27:03.504Z,8.87
2018-08-11T09:29:30.888Z,5.30
2018-08-11T09:31:58.298Z,3.83
2018-08-11T09:34:25.693Z,9.27
2018-08-11T09:36:53.123Z,6.23
2018-08-11T09:39:20.496Z,5.60
2018-08-11T09:41:47.895Z,6.10
2018-08-11T09:44:15.299Z,7.50
2018-08-11T09:46:42.695Z,7.23
2018-08-11T09:49:10.146Z,3.17
2018-08-11T09:51:37.565Z,3.10
2018-08-11T09:54:05.009Z,3.77
2018-08-11T09:56:32.563Z,5.10
2018-08-11T09:59:00.033Z,6.63
2018-08-11T10:01:33.291Z,2.83
2018-08-11T10:04:00.785Z,4.77
2018-08-11T10:06:28.169Z,6.07
2018-08-11T10:08:55.783Z,3.67
2018-08-11T10:11:23.167Z,4.27
2018-08-11T10:13:50.585Z,7.23
2018-08-11T10:16:18.443Z,3.47
2018-08-11T10:18:45.835Z,5.90
2018-08-11T10:21:13.207Z,2.57
2018-08-11T10:23:40.590Z,4.43
2018-08-11T10:26:07.975Z,4.70
2018-08-11T10:28:35.424Z,3.37
2018-08-11T10:31:02.875Z,4.47
2018-08-11T10:33:30.527Z,2.17
2018-08-11T10:35:58.180Z,5.13
2018-08-11T10:38:25.641Z,5.40
2018-08-11T10:40:53.052Z,1.83
2018-08-11T10:43:20.446Z,5.03
2018-08-11T10:45:47.855Z,2.27
2018-08-11T10:48:15.308Z,3.40
2018-08-11T10:50:42.699Z,2.80
2018-08-11T10:53:10.069Z,1.77
2018-08-11T10:55:37.458Z,5.77
2018-08-11T11:01:35.304Z,5.63
2018-08-11T11:04:02.779Z,2.43
2018-08-11T11:06:30.138Z,7.70
2018-08-11T11:08:57.528Z,1.60
2018-08-11T11:11:24.886Z,3.33
2018-08-11T11:13:52.253Z,1.97
2018-08-11T11:16:19.605Z,2.13
2018-08-11T11:18:47.052Z,2.20
2018-08-11T11:21:14.415Z,3.53
2018-08-11T11:23:41.811Z,6.63
2018-08-11T11:26:09.291Z,2.33
2018-08-11T11:28:36.680Z,1.23
2018-08-11T11:31:04.204Z,1.43
2018-08-11T11:33:31.587Z,1.93
2018-08-11T11:35:58.950Z,2.50
2018-08-11T11:38:26.288Z,2.93
2018-08-11T11:40:53.663Z,1.93
2018-08-11T11:43:21.075Z,2.40
2018-08-11T11:45:48.485Z,2.50
2018-08-11T11:48:15.842Z,2.20
2018-08-11T11:50:43.463Z,3.27
2018-08-11T11:53:10.878Z,5.13
2018-08-11T11:55:38.236Z,3.10
2018-08-11T11:58:05.623Z,3.20
2018-08-11T12:00:32.980Z,2.77
2018-08-11T12:03:00.345Z,7.77
2018-08-11T12:05:27.700Z,5.70
2018-08-11T12:07:55.060Z,4.83
2018-08-11T12:10:22.464Z,3.20
2018-08-11T12:12:49.824Z,1.87
2018-08-11T12:15:17.191Z,3.87
2018-08-11T12:17:44.591Z,2.80
2018-08-11T12:20:11.958Z,3.37
2018-08-11T12:22:39.972Z,5.30
2018-08-11T12:25:08.008Z,2.60
2018-08-11T12:27:35.421Z,7.43
2018-08-11T12:30:02.776Z,4.43
2018-08-11T12:32:30.278Z,2.27
2018-08-11T12:34:57.736Z,9.23
2018-08-11T12:37:25.116Z,3.77
2018-08-11T12:39:52.493Z,4.93
2018-08-11T12:42:19.853Z,2.03
2018-08-11T12:44:47.244Z,2.67
2018-08-11T12:47:15.345Z,2.40
2018-08-11T12:49:42.688Z,1.90
2018-08-11T12:52:10.135Z,2.00
2018-08-11T12:54:37.562Z,4.07
2018-08-11T12:57:04.968Z,1.67
2018-08-11T12:59:32.396Z,1.80
2018-08-11T13:02:00.203Z,1.77
2018-08-11T13:04:27.709Z,2.67
2018-08-11T13:06:55.361Z,3.03
2018-08-11T13:09:22.712Z,3.77
2018-08-11T13:11:50.240Z,4.17
2018-08-11T13:14:17.627Z,4.13
2018-08-11T13:16:45.110Z,1.10
2018-08-11T13:19:13.207Z,2.17
2018-08-11T13:21:40.636Z,1.80
2018-08-11T13:24:08.059Z,2.00
2018-08-11T13:26:35.422Z,2.37
2018-08-11T13:29:02.804Z,2.10
2018-08-11T13:31:30.197Z,2.63
2018-08-11T13:33:57.599Z,1.37
2018-08-11T13:36:24.981Z,4.90
2018-08-11T13:38:52.353Z,3.63
2018-08-11T13:41:19.852Z,2.80
2018-08-11T13:43:47.435Z,2.20
2018-08-11T13:46:14.849Z,2.13
2018-08-11T13:48:42.229Z,3.33
2018-08-11T13:51:09.916Z,4.97
2018-08-11T13:53:37.272Z,3.00
2018-08-11T13:56:04.647Z,2.67
2018-08-11T13:58:32.029Z,2.50
2018-08-11T14:01:00.686Z,3.17
2018-08-11T14:03:28.356Z,1.80
2018-08-11T14:05:55.741Z,5.23
2018-08-11T14:08:23.283Z,1.90
2018-08-11T14:10:50.932Z,3.77
2018-08-11T14:13:18.425Z,2.00
2018-08-11T14:15:45.853Z,1.60
2018-08-11T14:18:13.224Z,2.83
2018-08-11T14:20:40.627Z,2.03
2018-08-11T14:23:08.029Z,2.20
2018-08-11T14:25:35.624Z,2.40
2018-08-11T14:28:03.401Z,2.50
2018-08-11T14:30:31.524Z,3.37
2018-08-11T14:32:59.271Z,3.80
2018-08-11T14:35:27.859Z,3.03
2018-08-11T14:37:56.517Z,3.47
2018-08-11T14:40:24.316Z,2.13
2018-08-11T14:42:51.932Z,2.60
2018-08-11T14:45:20.373Z,1.93
2018-08-11T14:47:47.809Z,2.60
2018-08-11T14:50:15.272Z,2.50
2018-08-11T14:52:43.072Z,2.23
2018-08-11T14:55:10.531Z,2.40
2018-08-11T14:57:38.151Z,1.10
2018-08-11T15:00:08.492Z,2.13
2018-08-11T15:02:36.248Z,2.90
2018-08-11T15:05:04.436Z,4.70
2018-08-11T15:07:31.868Z,1.50
2018-08-11T15:09:59.551Z,3.50
2018-08-11T15:12:27.182Z,6.13
2018-08-11T15:14:54.988Z,1.67
2018-08-11T15:17:22.454Z,4.00
2018-08-11T15:19:50.288Z,3.37
2018-08-11T15:22:18.429Z,3.43
2018-08-11T15:24:45.878Z,3.83
2018-08-11T15:27:13.282Z,6.10
2018-08-11T15:29:40.680Z,3.63
2018-08-11T15:32:08.227Z,2.10
2018-08-11T15:34:36.731Z,1.77
2018-08-11T15:37:04.490Z,2.37
2018-08-11T15:39:32.228Z,16.13
2018-08-11T15:41:59.964Z,2.73
2018-08-11T15:44:27.766Z,4.90
2018-08-11T15:46:55.247Z,3.83
2018-08-11T15:49:22.767Z,4.10
2018-08-11T15:51:50.382Z,4.43
2018-08-11T15:54:18.059Z,2.23
2018-08-11T15:56:45.846Z,4.13
2018-08-11T15:59:13.442Z,2.77
2018-08-11T16:01:40.988Z,2.13
2018-08-11T16:04:08.471Z,2.43
2018-08-11T16:06:35.992Z,1.67
2018-08-11T16:09:06.147Z,6.30
2018-08-11T16:11:33.630Z,3.17
2018-08-11T16:14:01.194Z,3.37
2018-08-11T16:16:28.697Z,3.80
2018-08-11T16:18:56.088Z,3.20
2018-08-11T16:21:23.448Z,2.00
2018-08-11T16:23:51.823Z,1.27
2018-08-11T16:26:19.356Z,2.97
2018-08-11T16:28:46.746Z,4.30
2018-08-11T16:31:14.097Z,2.90
2018-08-11T16:33:41.491Z,5.13
2018-08-11T16:36:09.093Z,2.37
2018-08-11T16:38:36.472Z,5.60
2018-08-11T16:41:04.628Z,5.30
2018-08-11T16:43:32.153Z,2.50
2018-08-11T16:45:59.567Z,3.87
2018-08-11T16:48:26.984Z,7.67
2018-08-11T16:50:54.874Z,9.00
2018-08-11T16:53:22.616Z,4.50
2018-08-11T16:55:50.017Z,4.17
2018-08-11T16:58:17.687Z,2.80
2018-08-11T17:00:45.416Z,7.23
2018-08-11T17:03:12.744Z,10.23
2018-08-11T17:05:41.459Z,9.53
2018-08-11T17:08:08.805Z,11.33
2018-08-11T17:10:36.252Z,11.37
2018-08-11T17:13:03.900Z,5.83
2018-08-11T17:15:31.844Z,5.67
2018-08-11T17:17:59.732Z,5.33
2018-08-11T17:20:27.847Z,2.63
2018-08-11T17:22:55.273Z,7.03
2018-08-11T17:25:24.040Z,6.23
2018-08-11T17:27:51.501Z,8.20
2018-08-11T17:30:18.903Z,7.87
2018-08-11T17:32:46.322Z,5.67
2018-08-11T17:35:13.780Z,6.17
2018-08-11T17:37:41.420Z,5.30
2018-08-11T17:40:09.508Z,3.03
2018-08-11T17:42:37.320Z,2.83
2018-08-11T17:45:04.691Z,3.60
2018-08-11T17:47:32.158Z,1.80
2018-08-11T17:50:00.795Z,2.53
2018-08-11T17:52:28.535Z,3.77
2018-08-11T17:54:56.198Z,2.80
2018-08-11T17:57:23.751Z,3.70
2018-08-11T17:59:52.998Z,2.73
2018-08-11T18:02:20.377Z,5.87
2018-08-11T18:04:48.477Z,7.97
2018-08-11T18:07:15.924Z,14.00
2018-08-11T18:09:43.628Z,7.53
2018-08-11T18:12:11.540Z,8.97
2018-08-11T18:14:39.013Z,6.70
2018-08-11T18:17:07.077Z,5.60
2018-08-11T18:19:34.484Z,5.83
2018-08-11T18:22:03.581Z,5.53
2018-08-11T18:24:31.288Z,4.00
2018-08-11T18:26:58.687Z,3.63
2018-08-11T18:29:26.421Z,2.90
2018-08-11T18:31:54.751Z,3.30
2018-08-11T18:34:22.878Z,4.03
2018-08-11T18:36:51.356Z,2.73
2018-08-11T18:39:19.089Z,4.97
2018-08-11T18:41:46.476Z,5.37
2018-08-11T18:44:14.689Z,7.23
2018-08-11T18:46:42.071Z,6.83
2018-08-11T18:49:09.503Z,7.03
2018-08-11T18:51:36.898Z,16.47
2018-08-11T18:54:04.760Z,15.57
2018-08-11T18:56:33.548Z,14.13
2018-08-11T18:59:00.923Z,14.50
2018-08-11T19:01:29.659Z,12.00
2018-08-11T19:03:57.031Z,12.70
2018-08-11T19:06:26.104Z,11.83
2018-08-11T19:08:53.463Z,9.03
2018-08-11T19:11:20.836Z,8.27
2018-08-11T19:13:48.308Z,13.30
2018-08-11T19:16:15.722Z,12.13
2018-08-11T19:18:43.696Z,13.57
2018-08-11T19:21:11.096Z,12.33
2018-08-11T19:23:38.520Z,13.17
2018-08-11T19:26:06.669Z,12.63
2018-08-11T19:28:34.783Z,9.53
2018-08-11T19:31:02.664Z,16.57
2018-08-11T19:33:30.368Z,14.53
2018-08-11T19:35:58.127Z,10.43
2018-08-11T19:38:25.502Z,12.97
2018-08-11T19:40:53.316Z,16.10
2018-08-11T19:43:20.696Z,11.67
2018-08-11T19:45:48.133Z,10.07
2018-08-11T19:48:16.215Z,9.27
2018-08-11T19:50:43.685Z,11.57
2018-08-11T19:53:11.142Z,8.53
2018-08-11T19:55:38.983Z,8.17
2018-08-11T19:58:07.166Z,7.30
2018-08-11T20:00:34.565Z,8.60
2018-08-11T20:03:03.294Z,10.17
2018-08-11T20:05:30.699Z,12.13
2018-08-11T20:07:58.940Z,9.87
2018-08-11T20:10:26.403Z,9.93
2018-08-11T20:12:53.823Z,11.07
2018-08-11T20:15:22.696Z,10.13
2018-08-11T20:17:50.615Z,8.03
2018-08-11T20:20:18.076Z,9.80
2018-08-11T20:22:45.787Z,7.47
2018-08-11T20:25:13.618Z,7.93
2018-08-11T20:27:42.228Z,9.20
2018-08-11T20:30:10.374Z,10.23
2018-08-11T20:32:38.076Z,11.47
2018-08-11T20:35:06.127Z,11.63
2018-08-11T20:37:33.591Z,9.67
2018-08-11T20:40:01.009Z,7.63
2018-08-11T20:42:28.398Z,8.10
2018-08-11T20:44:55.995Z,8.23
2018-08-11T20:47:23.504Z,8.90
2018-08-11T20:49:50.946Z,13.07
2018-08-11T20:52:18.372Z,9.87
2018-08-11T20:54:45.794Z,8.53
2018-08-11T20:57:14.017Z,9.37
2018-08-11T20:59:41.408Z,8.00
2018-08-11T21:02:08.861Z,11.27
2018-08-11T21:04:36.262Z,9.33
2018-08-11T21:07:03.683Z,9.83
2018-08-11T21:09:31.056Z,10.13
2018-08-11T21:11:58.441Z,10.03
2018-08-11T21:14:25.857Z,9.33
2018-08-11T21:16:53.373Z,9.77
2018-08-11T21:19:20.757Z,8.77
2018-08-11T21:21:48.156Z,9.33
2018-08-11T21:24:15.528Z,6.80
2018-08-11T21:26:42.960Z,6.60
2018-08-11T21:29:10.376Z,7.20
2018-08-11T21:31:37.808Z,6.57
2018-08-11T21:34:05.220Z,6.03
2018-08-11T21:36:32.627Z,5.60
2018-08-11T21:39:00.011Z,5.17
2018-08-11T21:41:27.409Z,6.53
2018-08-11T21:43:54.855Z,4.87
2018-08-11T21:46:22.260Z,7.57
2018-08-11T21:48:49.626Z,5.93
2018-08-11T21:51:16.988Z,6.73
2018-08-11T21:53:44.393Z,5.03
2018-08-11T21:56:11.784Z,4.70
2018-08-11T21:58:39.167Z,4.37
2018-08-11T22:01:13.832Z,5.80
2018-08-11T22:03:42.091Z,4.00
2018-08-11T22:06:09.654Z,6.17
2018-08-11T22:08:37.037Z,3.33
2018-08-11T22:11:04.461Z,4.97
2018-08-11T22:13:31.840Z,3.97
2018-08-11T22:15:59.448Z,4.67
2018-08-11T22:18:26.866Z,4.60
2018-08-11T22:20:54.297Z,4.00
2018-08-11T22:23:21.722Z,6.67
2018-08-11T22:25:49.120Z,5.23
2018-08-11T22:28:16.484Z,4.87
2018-08-11T22:30:43.856Z,4.33
2018-08-11T22:33:11.276Z,4.40
2018-08-11T22:35:38.671Z,3.17
2018-08-11T22:38:06.123Z,3.77
2018-08-11T22:40:33.487Z,4.00
2018-08-11T22:43:00.857Z,3.27
2018-08-11T22:45:28.223Z,3.93
2018-08-11T22:47:55.583Z,4.57
2018-08-11T22:50:22.983Z,3.37
2018-08-11T22:52:50.377Z,3.93
2018-08-11T22:55:17.753Z,5.30
2018-08-11T22:57:45.160Z,3.00
2018-08-11T23:00:15.804Z,4.20
2018-08-11T23:02:43.416Z,4.57
2018-08-11T23:05:10.883Z,3.77
2018-08-11T23:07:38.608Z,3.83
2018-08-11T23:10:07.327Z,4.10
2018-08-11T23:12:34.736Z,3.50
2018-08-11T23:15:02.110Z,3.87
2018-08-11T23:17:29.488Z,4.80
2018-08-11T23:19:56.880Z,3.20
2018-08-11T23:22:24.241Z,5.90
2018-08-11T23:24:51.609Z,2.60
2018-08-11T23:27:18.980Z,4.30
2018-08-11T23:29:46.351Z,3.13
2018-08-11T23:32:13.760Z,3.40
2018-08-11T23:34:41.141Z,2.73
2018-08-11T23:37:08.541Z,5.03
2018-08-11T23:39:35.876Z,4.27
2018-08-11T23:42:03.259Z,4.03
2018-08-11T23:44:30.682Z,3.37
2018-08-11T23:46:58.036Z,3.07
2018-08-11T23:49:25.415Z,3.97
2018-08-11T23:51:52.813Z,3.73
2018-08-11T23:54:20.179Z,4.70
2018-08-11T23:56:47.611Z,3.10
2018-08-11T23:59:15.011Z,2.87
